sensor_id;sensor_type;location;lat;lon;timestamp;temperature;humidity
10030;DHT22;5055;52.054;8.524;2023-12-20T00:02:03;7.00;97.00
10030;DHT22;5055;52.054;8.524;2023-12-20T00:04:32;7.00;97.00
10030;DHT22;5055;52.054;8.524;2023-12-20T00:07:01;6.90;97.00
10030;DHT22;5055;52.054;8.524;2023-12-20T00:09:29;6.90;97.00
10030;DHT22;5055;52.054;8.524;2023-12-20T00:11:58;6.90;97.00
10030;DHT22;5055;52.054;8.524;2023-12-20T00:14:26;6.80;97.00
10030;DHT22;5055;52.054;8.524;2023-12-20T00:16:54;6.80;97.00
10030;DHT22;5055;52.054;8.524;2023-12-20T00:19:22;6.70;97.00
10030;DHT22;5055;52.054;8.524;2023-12-20T00:21:51;6.70;97.00
10030;DHT22;5055;52.054;8.524;2023-12-20T00:24:20;6.70;97.00
10030;DHT22;5055;52.054;8.524;2023-12-20T00:26:49;6.70;97.00
10030;DHT22;5055;52.054;8.524;2023-12-20T00:29:17;6.70;97.00
10030;DHT22;5055;52.054;8.524;2023-12-20T00:31:45;6.70;97.00
10030;DHT22;5055;52.054;8.524;2023-12-20T00:34:14;6.70;97.00
10030;DHT22;5055;52.054;8.524;2023-12-20T00:36:42;6.70;97.00
10030;DHT22;5055;52.054;8.524;2023-12-20T00:39:11;6.70;97.00
10030;DHT22;5055;52.054;8.524;2023-12-20T00:41:40;6.70;97.00
10030;DHT22;5055;52.054;8.524;2023-12-20T00:44:08;6.70;97.00
10030;DHT22;5055;52.054;8.524;2023-12-20T00:46:36;6.80;97.00
10030;DHT22;5055;52.054;8.524;2023-12-20T00:49:04;6.80;97.00
10030;DHT22;5055;52.054;8.524;2023-12-20T00:51:32;6.80;97.00
10030;DHT22;5055;52.054;8.524;2023-12-20T00:54:01;6.80;97.00
10030;DHT22;5055;52.054;8.524;2023-12-20T00:56:29;6.80;97.00
10030;DHT22;5055;52.054;8.524;2023-12-20T00:58:58;6.80;97.00
10030;DHT22;5055;52.054;8.524;2023-12-20T01:01:26;6.80;97.00
10030;DHT22;5055;52.054;8.524;2023-12-20T01:03:55;6.80;97.00
10030;DHT22;5055;52.054;8.524;2023-12-20T01:06:23;6.80;97.00
10030;DHT22;5055;52.054;8.524;2023-12-20T01:08:51;6.80;97.00
10030;DHT22;5055;52.054;8.524;2023-12-20T01:11:19;6.80;97.00
10030;DHT22;5055;52.054;8.524;2023-12-20T01:13:47;6.80;97.00
10030;DHT22;5055;52.054;8.524;2023-12-20T01:16:16;6.80;97.00
10030;DHT22;5055;52.054;8.524;2023-12-20T01:18:45;6.80;97.00
10030;DHT22;5055;52.054;8.524;2023-12-20T01:21:13;6.80;97.00
10030;DHT22;5055;52.054;8.524;2023-12-20T01:23:41;6.80;97.00
10030;DHT22;5055;52.054;8.524;2023-12-20T01:26:09;6.80;97.00
10030;DHT22;5055;52.054;8.524;2023-12-20T01:28:37;6.80;97.00
10030;DHT22;5055;52.054;8.524;2023-12-20T01:31:05;6.80;97.00
10030;DHT22;5055;52.054;8.524;2023-12-20T01:33:35;6.80;97.00
10030;DHT22;5055;52.054;8.524;2023-12-20T01:36:04;6.80;97.00
10030;DHT22;5055;52.054;8.524;2023-12-20T01:38:33;6.70;97.00
10030;DHT22;5055;52.054;8.524;2023-12-20T01:41:01;6.70;97.00
10030;DHT22;5055;52.054;8.524;2023-12-20T01:43:32;6.70;97.00
10030;DHT22;5055;52.054;8.524;2023-12-20T01:46:17;6.60;97.00
10030;DHT22;5055;52.054;8.524;2023-12-20T01:48:47;6.60;97.00
10030;DHT22;5055;52.054;8.524;2023-12-20T01:51:15;6.60;97.00
10030;DHT22;5055;52.054;8.524;2023-12-20T01:53:44;6.50;97.00
10030;DHT22;5055;52.054;8.524;2023-12-20T01:56:12;6.50;97.00
10030;DHT22;5055;52.054;8.524;2023-12-20T01:58:44;6.50;97.00
10030;DHT22;5055;52.054;8.524;2023-12-20T02:01:13;6.50;97.00
10030;DHT22;5055;52.054;8.524;2023-12-20T02:03:42;6.50;97.00
10030;DHT22;5055;52.054;8.524;2023-12-20T02:06:21;6.50;97.00
10030;DHT22;5055;52.054;8.524;2023-12-20T02:08:51;6.40;97.00
10030;DHT22;5055;52.054;8.524;2023-12-20T02:11:19;6.40;97.00
10030;DHT22;5055;52.054;8.524;2023-12-20T02:13:47;6.40;97.00
10030;DHT22;5055;52.054;8.524;2023-12-20T02:16:16;6.40;97.00
10030;DHT22;5055;52.054;8.524;2023-12-20T02:18:44;6.40;97.00
10030;DHT22;5055;52.054;8.524;2023-12-20T02:21:15;6.40;97.00
10030;DHT22;5055;52.054;8.524;2023-12-20T02:23:44;6.40;97.00
10030;DHT22;5055;52.054;8.524;2023-12-20T02:26:13;6.50;97.00
10030;DHT22;5055;52.054;8.524;2023-12-20T02:28:41;6.50;97.00
10030;DHT22;5055;52.054;8.524;2023-12-20T02:31:09;6.50;97.00
10030;DHT22;5055;52.054;8.524;2023-12-20T02:33:38;6.50;97.00
10030;DHT22;5055;52.054;8.524;2023-12-20T02:36:06;6.50;97.00
10030;DHT22;5055;52.054;8.524;2023-12-20T02:38:34;6.50;97.00
10030;DHT22;5055;52.054;8.524;2023-12-20T02:41:04;6.50;97.00
10030;DHT22;5055;52.054;8.524;2023-12-20T02:43:32;6.50;97.00
10030;DHT22;5055;52.054;8.524;2023-12-20T02:46:00;6.50;97.00
10030;DHT22;5055;52.054;8.524;2023-12-20T02:48:29;6.50;97.00
10030;DHT22;5055;52.054;8.524;2023-12-20T02:50:57;6.50;97.00
10030;DHT22;5055;52.054;8.524;2023-12-20T02:53:25;6.50;97.00
10030;DHT22;5055;52.054;8.524;2023-12-20T02:55:53;6.50;97.00
10030;DHT22;5055;52.054;8.524;2023-12-20T02:58:23;6.50;97.00
10030;DHT22;5055;52.054;8.524;2023-12-20T03:00:57;6.40;97.00
10030;DHT22;5055;52.054;8.524;2023-12-20T03:03:43;6.40;97.00
10030;DHT22;5055;52.054;8.524;2023-12-20T03:06:11;6.40;97.00
10030;DHT22;5055;52.054;8.524;2023-12-20T03:08:39;6.40;97.00
10030;DHT22;5055;52.054;8.524;2023-12-20T03:11:08;6.40;97.00
10030;DHT22;5055;52.054;8.524;2023-12-20T03:13:37;6.40;97.00
10030;DHT22;5055;52.054;8.524;2023-12-20T03:16:08;6.40;97.00
10030;DHT22;5055;52.054;8.524;2023-12-20T03:18:37;6.40;97.00
10030;DHT22;5055;52.054;8.524;2023-12-20T03:21:05;6.40;97.00
10030;DHT22;5055;52.054;8.524;2023-12-20T03:23:33;6.40;97.00
10030;DHT22;5055;52.054;8.524;2023-12-20T03:26:02;6.40;97.00
10030;DHT22;5055;52.054;8.524;2023-12-20T03:28:30;6.40;97.00
10030;DHT22;5055;52.054;8.524;2023-12-20T03:30:59;6.30;97.00
10030;DHT22;5055;52.054;8.524;2023-12-20T03:33:29;6.30;97.00
10030;DHT22;5055;52.054;8.524;2023-12-20T03:35:58;6.30;97.00
10030;DHT22;5055;52.054;8.524;2023-12-20T03:38:26;6.30;97.00
10030;DHT22;5055;52.054;8.524;2023-12-20T03:40:54;6.30;97.00
10030;DHT22;5055;52.054;8.524;2023-12-20T03:43:22;6.30;97.00
10030;DHT22;5055;52.054;8.524;2023-12-20T03:45:50;6.30;97.00
10030;DHT22;5055;52.054;8.524;2023-12-20T03:48:20;6.30;97.00
10030;DHT22;5055;52.054;8.524;2023-12-20T03:50:48;6.30;97.00
10030;DHT22;5055;52.054;8.524;2023-12-20T03:53:16;6.30;97.00
10030;DHT22;5055;52.054;8.524;2023-12-20T03:55:44;6.20;97.00
10030;DHT22;5055;52.054;8.524;2023-12-20T03:58:12;6.30;97.00
10030;DHT22;5055;52.054;8.524;2023-12-20T04:00:41;6.30;97.00
10030;DHT22;5055;52.054;8.524;2023-12-20T04:03:09;6.30;97.00
10030;DHT22;5055;52.054;8.524;2023-12-20T04:05:40;6.20;97.00
10030;DHT22;5055;52.054;8.524;2023-12-20T04:08:09;6.30;97.00
10030;DHT22;5055;52.054;8.524;2023-12-20T04:10:37;6.20;97.00
10030;DHT22;5055;52.054;8.524;2023-12-20T04:13:05;6.20;97.00
10030;DHT22;5055;52.054;8.524;2023-12-20T04:15:34;6.20;97.00
10030;DHT22;5055;52.054;8.524;2023-12-20T04:18:02;6.30;97.00
10030;DHT22;5055;52.054;8.524;2023-12-20T04:20:31;6.30;97.00
10030;DHT22;5055;52.054;8.524;2023-12-20T04:23:00;6.30;97.00
10030;DHT22;5055;52.054;8.524;2023-12-20T04:25:28;6.20;97.00
10030;DHT22;5055;52.054;8.524;2023-12-20T04:27:56;6.20;97.00
10030;DHT22;5055;52.054;8.524;2023-12-20T04:30:25;6.20;97.00
10030;DHT22;5055;52.054;8.524;2023-12-20T04:32:53;6.20;97.00
10030;DHT22;5055;52.054;8.524;2023-12-20T04:35:21;6.20;97.00
10030;DHT22;5055;52.054;8.524;2023-12-20T04:37:49;6.20;97.00
10030;DHT22;5055;52.054;8.524;2023-12-20T04:40:18;6.30;97.00
10030;DHT22;5055;52.054;8.524;2023-12-20T04:42:47;6.20;97.00
10030;DHT22;5055;52.054;8.524;2023-12-20T04:45:15;6.20;97.00
10030;DHT22;5055;52.054;8.524;2023-12-20T04:47:44;6.30;97.00
10030;DHT22;5055;52.054;8.524;2023-12-20T04:50:14;6.30;97.00
10030;DHT22;5055;52.054;8.524;2023-12-20T04:52:43;6.30;97.00
10030;DHT22;5055;52.054;8.524;2023-12-20T04:55:11;6.30;97.00
10030;DHT22;5055;52.054;8.524;2023-12-20T04:57:40;6.30;97.00
10030;DHT22;5055;52.054;8.524;2023-12-20T05:00:11;6.20;97.00
10030;DHT22;5055;52.054;8.524;2023-12-20T05:02:41;6.20;97.00
10030;DHT22;5055;52.054;8.524;2023-12-20T05:05:09;6.20;97.00
10030;DHT22;5055;52.054;8.524;2023-12-20T05:07:37;6.20;97.00
10030;DHT22;5055;52.054;8.524;2023-12-20T05:10:06;6.20;97.00
10030;DHT22;5055;52.054;8.524;2023-12-20T05:12:35;6.30;97.00
10030;DHT22;5055;52.054;8.524;2023-12-20T05:15:06;6.30;97.00
10030;DHT22;5055;52.054;8.524;2023-12-20T05:17:35;6.30;97.00
10030;DHT22;5055;52.054;8.524;2023-12-20T05:20:04;6.30;97.00
10030;DHT22;5055;52.054;8.524;2023-12-20T05:22:32;6.30;97.00
10030;DHT22;5055;52.054;8.524;2023-12-20T05:25:00;6.30;97.00
10030;DHT22;5055;52.054;8.524;2023-12-20T05:27:29;6.30;97.00
10030;DHT22;5055;52.054;8.524;2023-12-20T05:29:57;6.30;97.00
10030;DHT22;5055;52.054;8.524;2023-12-20T05:32:27;6.30;97.00
10030;DHT22;5055;52.054;8.524;2023-12-20T05:34:55;6.30;97.00
10030;DHT22;5055;52.054;8.524;2023-12-20T05:37:23;6.30;97.00
10030;DHT22;5055;52.054;8.524;2023-12-20T05:39:52;6.30;97.00
10030;DHT22;5055;52.054;8.524;2023-12-20T05:42:20;6.30;97.00
10030;DHT22;5055;52.054;8.524;2023-12-20T05:44:48;6.30;97.00
10030;DHT22;5055;52.054;8.524;2023-12-20T05:47:19;6.30;97.00
10030;DHT22;5055;52.054;8.524;2023-12-20T05:49:49;6.30;97.00
10030;DHT22;5055;52.054;8.524;2023-12-20T05:52:18;6.20;97.00
10030;DHT22;5055;52.054;8.524;2023-12-20T05:54:46;6.20;97.00
10030;DHT22;5055;52.054;8.524;2023-12-20T05:57:13;6.20;97.00
10030;DHT22;5055;52.054;8.524;2023-12-20T05:59:41;6.20;97.00
10030;DHT22;5055;52.054;8.524;2023-12-20T06:02:09;6.20;97.00
10030;DHT22;5055;52.054;8.524;2023-12-20T06:04:37;6.20;97.00
10030;DHT22;5055;52.054;8.524;2023-12-20T06:07:12;6.20;97.00
10030;DHT22;5055;52.054;8.524;2023-12-20T06:09:41;6.20;97.00
10030;DHT22;5055;52.054;8.524;2023-12-20T06:12:09;6.20;97.00
10030;DHT22;5055;52.054;8.524;2023-12-20T06:14:37;6.20;97.00
10030;DHT22;5055;52.054;8.524;2023-12-20T06:17:06;6.20;97.00
10030;DHT22;5055;52.054;8.524;2023-12-20T06:19:34;6.20;97.00
10030;DHT22;5055;52.054;8.524;2023-12-20T06:22:02;6.20;97.00
10030;DHT22;5055;52.054;8.524;2023-12-20T06:24:32;6.30;97.00
10030;DHT22;5055;52.054;8.524;2023-12-20T06:27:01;6.30;97.00
10030;DHT22;5055;52.054;8.524;2023-12-20T06:29:28;6.30;97.00
10030;DHT22;5055;52.054;8.524;2023-12-20T06:31:58;6.30;97.00
10030;DHT22;5055;52.054;8.524;2023-12-20T06:34:26;6.30;97.00
10030;DHT22;5055;52.054;8.524;2023-12-20T06:36:54;6.30;97.00
10030;DHT22;5055;52.054;8.524;2023-12-20T06:39:22;6.30;97.00
10030;DHT22;5055;52.054;8.524;2023-12-20T06:41:52;6.30;97.00
10030;DHT22;5055;52.054;8.524;2023-12-20T06:44:20;6.30;97.00
10030;DHT22;5055;52.054;8.524;2023-12-20T06:46:48;6.30;97.00
10030;DHT22;5055;52.054;8.524;2023-12-20T06:49:16;6.30;97.00
10030;DHT22;5055;52.054;8.524;2023-12-20T06:51:45;6.30;97.00
10030;DHT22;5055;52.054;8.524;2023-12-20T06:54:13;6.30;97.00
10030;DHT22;5055;52.054;8.524;2023-12-20T06:56:42;6.30;97.00
10030;DHT22;5055;52.054;8.524;2023-12-20T06:59:11;6.30;97.00
10030;DHT22;5055;52.054;8.524;2023-12-20T07:01:39;6.30;97.00
10030;DHT22;5055;52.054;8.524;2023-12-20T07:04:08;6.30;97.00
10030;DHT22;5055;52.054;8.524;2023-12-20T07:06:37;6.30;97.00
10030;DHT22;5055;52.054;8.524;2023-12-20T07:09:05;6.30;97.00
10030;DHT22;5055;52.054;8.524;2023-12-20T07:11:33;6.30;97.00
10030;DHT22;5055;52.054;8.524;2023-12-20T07:14:01;6.30;97.00
10030;DHT22;5055;52.054;8.524;2023-12-20T07:16:31;6.30;97.00
10030;DHT22;5055;52.054;8.524;2023-12-20T07:18:59;6.30;97.00
10030;DHT22;5055;52.054;8.524;2023-12-20T07:21:27;6.30;97.00
10030;DHT22;5055;52.054;8.524;2023-12-20T07:23:55;6.30;97.00
10030;DHT22;5055;52.054;8.524;2023-12-20T07:26:24;6.30;97.00
10030;DHT22;5055;52.054;8.524;2023-12-20T07:28:52;6.30;97.00
10030;DHT22;5055;52.054;8.524;2023-12-20T07:31:20;6.30;97.00
10030;DHT22;5055;52.054;8.524;2023-12-20T07:33:50;6.30;97.00
10030;DHT22;5055;52.054;8.524;2023-12-20T07:36:19;6.30;97.00
10030;DHT22;5055;52.054;8.524;2023-12-20T07:38:48;6.30;97.00
10030;DHT22;5055;52.054;8.524;2023-12-20T07:41:16;6.30;97.00
10030;DHT22;5055;52.054;8.524;2023-12-20T07:43:44;6.30;97.00
10030;DHT22;5055;52.054;8.524;2023-12-20T07:46:12;6.30;97.00
10030;DHT22;5055;52.054;8.524;2023-12-20T07:48:40;6.30;97.00
10030;DHT22;5055;52.054;8.524;2023-12-20T07:51:13;6.30;97.00
10030;DHT22;5055;52.054;8.524;2023-12-20T07:53:41;6.30;97.00
10030;DHT22;5055;52.054;8.524;2023-12-20T07:56:16;6.30;97.00
10030;DHT22;5055;52.054;8.524;2023-12-20T07:58:44;6.30;97.00
10030;DHT22;5055;52.054;8.524;2023-12-20T08:01:19;6.40;97.00
10030;DHT22;5055;52.054;8.524;2023-12-20T08:03:49;6.40;97.00
10030;DHT22;5055;52.054;8.524;2023-12-20T08:06:21;6.40;97.00
10030;DHT22;5055;52.054;8.524;2023-12-20T08:08:49;6.40;97.00
10030;DHT22;5055;52.054;8.524;2023-12-20T08:11:28;6.40;97.00
10030;DHT22;5055;52.054;8.524;2023-12-20T08:13:56;6.40;97.00
10030;DHT22;5055;52.054;8.524;2023-12-20T08:16:25;6.50;97.00
10030;DHT22;5055;52.054;8.524;2023-12-20T08:18:53;6.50;97.00
10030;DHT22;5055;52.054;8.524;2023-12-20T08:21:23;6.50;97.00
10030;DHT22;5055;52.054;8.524;2023-12-20T08:23:51;6.50;97.00
10030;DHT22;5055;52.054;8.524;2023-12-20T08:26:19;6.50;97.00
10030;DHT22;5055;52.054;8.524;2023-12-20T08:28:49;6.50;97.00
10030;DHT22;5055;52.054;8.524;2023-12-20T08:31:17;6.50;97.00
10030;DHT22;5055;52.054;8.524;2023-12-20T08:33:46;6.50;97.00
10030;DHT22;5055;52.054;8.524;2023-12-20T08:36:15;6.50;97.00
10030;DHT22;5055;52.054;8.524;2023-12-20T08:38:46;6.50;97.00
10030;DHT22;5055;52.054;8.524;2023-12-20T08:41:14;6.50;97.00
10030;DHT22;5055;52.054;8.524;2023-12-20T08:43:42;6.50;97.00
10030;DHT22;5055;52.054;8.524;2023-12-20T08:46:10;6.50;97.00
10030;DHT22;5055;52.054;8.524;2023-12-20T08:48:39;6.50;97.00
10030;DHT22;5055;52.054;8.524;2023-12-20T08:51:07;6.50;97.00
10030;DHT22;5055;52.054;8.524;2023-12-20T08:53:36;6.50;97.00
10030;DHT22;5055;52.054;8.524;2023-12-20T08:56:06;6.50;97.00
10030;DHT22;5055;52.054;8.524;2023-12-20T08:58:34;6.50;97.00
10030;DHT22;5055;52.054;8.524;2023-12-20T09:01:03;6.50;97.00
10030;DHT22;5055;52.054;8.524;2023-12-20T09:03:31;6.50;97.00
10030;DHT22;5055;52.054;8.524;2023-12-20T09:05:59;6.50;97.00
10030;DHT22;5055;52.054;8.524;2023-12-20T09:08:28;6.50;97.00
10030;DHT22;5055;52.054;8.524;2023-12-20T09:10:56;6.50;97.00
10030;DHT22;5055;52.054;8.524;2023-12-20T09:13:26;6.50;97.00
10030;DHT22;5055;52.054;8.524;2023-12-20T09:15:55;6.50;97.00
10030;DHT22;5055;52.054;8.524;2023-12-20T09:18:24;6.50;97.00
10030;DHT22;5055;52.054;8.524;2023-12-20T09:20:54;6.50;97.00
10030;DHT22;5055;52.054;8.524;2023-12-20T09:23:22;6.50;97.00
10030;DHT22;5055;52.054;8.524;2023-12-20T09:25:50;6.50;97.00
10030;DHT22;5055;52.054;8.524;2023-12-20T09:28:23;6.50;97.00
10030;DHT22;5055;52.054;8.524;2023-12-20T09:30:53;6.60;97.00
10030;DHT22;5055;52.054;8.524;2023-12-20T09:33:21;6.60;97.00
10030;DHT22;5055;52.054;8.524;2023-12-20T09:35:49;6.60;97.00
10030;DHT22;5055;52.054;8.524;2023-12-20T09:38:18;6.60;97.00
10030;DHT22;5055;52.054;8.524;2023-12-20T09:40:46;6.60;97.00
10030;DHT22;5055;52.054;8.524;2023-12-20T09:43:15;6.60;97.00
10030;DHT22;5055;52.054;8.524;2023-12-20T09:45:45;6.60;97.00
10030;DHT22;5055;52.054;8.524;2023-12-20T09:48:17;6.60;97.00
10030;DHT22;5055;52.054;8.524;2023-12-20T09:50:46;6.60;97.00
10030;DHT22;5055;52.054;8.524;2023-12-20T09:53:20;6.60;97.00
10030;DHT22;5055;52.054;8.524;2023-12-20T09:55:51;6.60;97.00
10030;DHT22;5055;52.054;8.524;2023-12-20T09:58:19;6.60;97.00
10030;DHT22;5055;52.054;8.524;2023-12-20T10:00:48;6.60;97.00
10030;DHT22;5055;52.054;8.524;2023-12-20T10:03:20;6.60;97.00
10030;DHT22;5055;52.054;8.524;2023-12-20T10:05:54;6.60;97.00
10030;DHT22;5055;52.054;8.524;2023-12-20T10:08:22;6.70;97.00
10030;DHT22;5055;52.054;8.524;2023-12-20T10:10:52;6.70;97.00
10030;DHT22;5055;52.054;8.524;2023-12-20T10:13:20;6.70;97.00
10030;DHT22;5055;52.054;8.524;2023-12-20T10:15:50;6.80;97.00
10030;DHT22;5055;52.054;8.524;2023-12-20T10:18:20;6.80;97.00
10030;DHT22;5055;52.054;8.524;2023-12-20T10:21:03;6.90;97.00
10030;DHT22;5055;52.054;8.524;2023-12-20T10:23:32;6.90;97.00
10030;DHT22;5055;52.054;8.524;2023-12-20T10:26:00;6.90;97.00
10030;DHT22;5055;52.054;8.524;2023-12-20T10:28:33;7.00;97.00
10030;DHT22;5055;52.054;8.524;2023-12-20T10:31:02;7.00;97.00
10030;DHT22;5055;52.054;8.524;2023-12-20T10:33:32;7.00;97.00
10030;DHT22;5055;52.054;8.524;2023-12-20T10:36:01;7.00;97.00
10030;DHT22;5055;52.054;8.524;2023-12-20T10:38:30;6.90;97.00
10030;DHT22;5055;52.054;8.524;2023-12-20T10:40:59;6.90;97.00
10030;DHT22;5055;52.054;8.524;2023-12-20T10:43:30;6.80;97.00
10030;DHT22;5055;52.054;8.524;2023-12-20T10:46:00;6.80;97.00
10030;DHT22;5055;52.054;8.524;2023-12-20T10:48:32;6.70;97.00
10030;DHT22;5055;52.054;8.524;2023-12-20T10:51:01;6.70;97.00
10030;DHT22;5055;52.054;8.524;2023-12-20T10:53:29;6.70;97.00
10030;DHT22;5055;52.054;8.524;2023-12-20T10:56:00;6.70;97.00
10030;DHT22;5055;52.054;8.524;2023-12-20T10:58:32;6.70;97.00
10030;DHT22;5055;52.054;8.524;2023-12-20T11:01:01;6.70;97.00
10030;DHT22;5055;52.054;8.524;2023-12-20T11:03:36;6.70;97.00
10030;DHT22;5055;52.054;8.524;2023-12-20T11:06:10;6.80;97.00
10030;DHT22;5055;52.054;8.524;2023-12-20T11:08:43;6.80;97.00
10030;DHT22;5055;52.054;8.524;2023-12-20T11:11:17;6.80;97.00
10030;DHT22;5055;52.054;8.524;2023-12-20T11:13:55;6.70;97.00
10030;DHT22;5055;52.054;8.524;2023-12-20T11:16:25;6.70;97.00
10030;DHT22;5055;52.054;8.524;2023-12-20T11:19:06;6.80;97.00
10030;DHT22;5055;52.054;8.524;2023-12-20T11:21:35;6.80;97.00
10030;DHT22;5055;52.054;8.524;2023-12-20T11:24:04;6.80;97.00
10030;DHT22;5055;52.054;8.524;2023-12-20T11:26:33;6.80;97.00
10030;DHT22;5055;52.054;8.524;2023-12-20T11:29:28;6.80;97.00
10030;DHT22;5055;52.054;8.524;2023-12-20T11:31:57;6.90;97.00
10030;DHT22;5055;52.054;8.524;2023-12-20T11:34:29;6.90;97.00
10030;DHT22;5055;52.054;8.524;2023-12-20T11:36:59;6.90;97.00
10030;DHT22;5055;52.054;8.524;2023-12-20T11:39:28;6.90;97.00
10030;DHT22;5055;52.054;8.524;2023-12-20T11:42:04;6.90;97.00
10030;DHT22;5055;52.054;8.524;2023-12-20T11:44:33;6.90;97.00
10030;DHT22;5055;52.054;8.524;2023-12-20T11:47:01;6.90;97.00
10030;DHT22;5055;52.054;8.524;2023-12-20T11:49:31;6.90;97.00
10030;DHT22;5055;52.054;8.524;2023-12-20T11:51:59;6.90;97.00
10030;DHT22;5055;52.054;8.524;2023-12-20T11:54:27;6.90;97.00
10030;DHT22;5055;52.054;8.524;2023-12-20T11:56:56;6.90;97.00
10030;DHT22;5055;52.054;8.524;2023-12-20T11:59:24;6.90;97.00
10030;DHT22;5055;52.054;8.524;2023-12-20T12:01:52;7.00;97.00
10030;DHT22;5055;52.054;8.524;2023-12-20T12:04:23;7.00;97.00
10030;DHT22;5055;52.054;8.524;2023-12-20T12:06:53;7.00;97.00
10030;DHT22;5055;52.054;8.524;2023-12-20T12:09:21;7.10;97.00
10030;DHT22;5055;52.054;8.524;2023-12-20T12:11:50;7.10;97.00
10030;DHT22;5055;52.054;8.524;2023-12-20T12:14:18;7.10;97.00
10030;DHT22;5055;52.054;8.524;2023-12-20T12:16:48;7.20;97.00
10030;DHT22;5055;52.054;8.524;2023-12-20T12:19:21;7.20;97.00
10030;DHT22;5055;52.054;8.524;2023-12-20T12:21:50;7.20;97.00
10030;DHT22;5055;52.054;8.524;2023-12-20T12:24:22;7.30;97.00
10030;DHT22;5055;52.054;8.524;2023-12-20T12:26:50;7.30;97.00
10030;DHT22;5055;52.054;8.524;2023-12-20T12:29:19;7.30;97.00
10030;DHT22;5055;52.054;8.524;2023-12-20T12:31:47;7.40;97.00
10030;DHT22;5055;52.054;8.524;2023-12-20T12:34:16;7.40;97.00
10030;DHT22;5055;52.054;8.524;2023-12-20T12:36:45;7.40;97.00
10030;DHT22;5055;52.054;8.524;2023-12-20T12:39:15;7.40;97.00
10030;DHT22;5055;52.054;8.524;2023-12-20T12:41:47;7.50;97.00
10030;DHT22;5055;52.054;8.524;2023-12-20T12:44:15;7.50;97.00
10030;DHT22;5055;52.054;8.524;2023-12-20T12:46:44;7.50;97.00
10030;DHT22;5055;52.054;8.524;2023-12-20T12:49:14;7.50;97.00
10030;DHT22;5055;52.054;8.524;2023-12-20T12:51:42;7.40;97.00
10030;DHT22;5055;52.054;8.524;2023-12-20T12:54:12;7.40;97.00
10030;DHT22;5055;52.054;8.524;2023-12-20T12:56:42;7.30;97.00
10030;DHT22;5055;52.054;8.524;2023-12-20T12:59:12;7.30;97.00
10030;DHT22;5055;52.054;8.524;2023-12-20T13:01:41;7.20;97.00
10030;DHT22;5055;52.054;8.524;2023-12-20T13:04:09;7.20;97.00
10030;DHT22;5055;52.054;8.524;2023-12-20T13:06:38;7.10;97.00
10030;DHT22;5055;52.054;8.524;2023-12-20T13:09:08;7.10;97.00
10030;DHT22;5055;52.054;8.524;2023-12-20T13:11:37;7.10;97.00
10030;DHT22;5055;52.054;8.524;2023-12-20T13:14:05;7.00;97.00
10030;DHT22;5055;52.054;8.524;2023-12-20T13:16:38;7.00;97.00
10030;DHT22;5055;52.054;8.524;2023-12-20T13:19:07;6.60;97.00
10030;DHT22;5055;52.054;8.524;2023-12-20T13:21:37;6.30;97.00
10030;DHT22;5055;52.054;8.524;2023-12-20T13:24:05;6.20;97.00
10030;DHT22;5055;52.054;8.524;2023-12-20T13:26:34;6.10;97.00
10030;DHT22;5055;52.054;8.524;2023-12-20T13:29:03;6.00;97.00
10030;DHT22;5055;52.054;8.524;2023-12-20T13:31:31;6.00;97.00
10030;DHT22;5055;52.054;8.524;2023-12-20T13:34:01;6.00;97.00
10030;DHT22;5055;52.054;8.524;2023-12-20T13:36:30;6.10;97.00
10030;DHT22;5055;52.054;8.524;2023-12-20T13:38:58;6.10;97.00
10030;DHT22;5055;52.054;8.524;2023-12-20T13:41:27;6.20;97.00
10030;DHT22;5055;52.054;8.524;2023-12-20T13:43:55;6.20;97.00
10030;DHT22;5055;52.054;8.524;2023-12-20T13:46:23;6.30;97.00
10030;DHT22;5055;52.054;8.524;2023-12-20T13:48:51;6.30;97.00
10030;DHT22;5055;52.054;8.524;2023-12-20T13:51:21;6.30;97.00
10030;DHT22;5055;52.054;8.524;2023-12-20T13:53:49;6.30;97.00
10030;DHT22;5055;52.054;8.524;2023-12-20T13:56:17;6.30;97.00
10030;DHT22;5055;52.054;8.524;2023-12-20T13:58:47;6.20;97.00
10030;DHT22;5055;52.054;8.524;2023-12-20T14:01:15;6.20;97.00
10030;DHT22;5055;52.054;8.524;2023-12-20T14:03:43;6.30;97.00
10030;DHT22;5055;52.054;8.524;2023-12-20T14:06:12;6.30;97.00
10030;DHT22;5055;52.054;8.524;2023-12-20T14:08:43;6.30;97.00
10030;DHT22;5055;52.054;8.524;2023-12-20T14:11:11;6.30;97.00
10030;DHT22;5055;52.054;8.524;2023-12-20T14:13:42;6.30;97.00
10030;DHT22;5055;52.054;8.524;2023-12-20T14:16:10;6.30;97.00
10030;DHT22;5055;52.054;8.524;2023-12-20T14:18:39;6.30;97.00
10030;DHT22;5055;52.054;8.524;2023-12-20T14:21:07;6.20;97.00
10030;DHT22;5055;52.054;8.524;2023-12-20T14:23:35;6.20;97.00
10030;DHT22;5055;52.054;8.524;2023-12-20T14:26:05;6.20;97.00
10030;DHT22;5055;52.054;8.524;2023-12-20T14:28:33;6.20;97.00
10030;DHT22;5055;52.054;8.524;2023-12-20T14:31:01;6.20;97.00
10030;DHT22;5055;52.054;8.524;2023-12-20T14:33:30;6.20;97.00
10030;DHT22;5055;52.054;8.524;2023-12-20T14:35:59;6.20;97.00
10030;DHT22;5055;52.054;8.524;2023-12-20T14:38:27;6.20;97.00
10030;DHT22;5055;52.054;8.524;2023-12-20T14:40:55;6.20;97.00
10030;DHT22;5055;52.054;8.524;2023-12-20T14:43:25;6.20;97.00
10030;DHT22;5055;52.054;8.524;2023-12-20T14:45:54;6.10;97.00
10030;DHT22;5055;52.054;8.524;2023-12-20T14:48:22;6.10;97.00
10030;DHT22;5055;52.054;8.524;2023-12-20T14:50:50;6.10;97.00
10030;DHT22;5055;52.054;8.524;2023-12-20T14:53:20;6.10;97.00
10030;DHT22;5055;52.054;8.524;2023-12-20T14:55:49;6.10;97.00
10030;DHT22;5055;52.054;8.524;2023-12-20T14:58:18;6.10;97.00
10030;DHT22;5055;52.054;8.524;2023-12-20T15:00:48;6.10;97.00
10030;DHT22;5055;52.054;8.524;2023-12-20T15:03:16;6.10;97.00
10030;DHT22;5055;52.054;8.524;2023-12-20T15:05:46;6.10;97.00
10030;DHT22;5055;52.054;8.524;2023-12-20T15:08:15;6.10;97.00
10030;DHT22;5055;52.054;8.524;2023-12-20T15:10:43;6.00;97.00
10030;DHT22;5055;52.054;8.524;2023-12-20T15:13:11;6.00;97.00
10030;DHT22;5055;52.054;8.524;2023-12-20T15:15:40;6.00;97.00
10030;DHT22;5055;52.054;8.524;2023-12-20T15:18:14;6.00;97.00
10030;DHT22;5055;52.054;8.524;2023-12-20T15:20:42;6.00;97.00
10030;DHT22;5055;52.054;8.524;2023-12-20T15:23:12;6.00;97.00
10030;DHT22;5055;52.054;8.524;2023-12-20T15:25:40;6.10;97.00
10030;DHT22;5055;52.054;8.524;2023-12-20T15:28:09;6.10;97.00
10030;DHT22;5055;52.054;8.524;2023-12-20T15:30:38;6.10;97.00
10030;DHT22;5055;52.054;8.524;2023-12-20T15:33:06;6.00;97.00
10030;DHT22;5055;52.054;8.524;2023-12-20T15:35:36;6.00;97.00
10030;DHT22;5055;52.054;8.524;2023-12-20T15:38:04;6.00;97.00
10030;DHT22;5055;52.054;8.524;2023-12-20T15:40:33;6.00;97.00
10030;DHT22;5055;52.054;8.524;2023-12-20T15:43:01;6.00;97.00
10030;DHT22;5055;52.054;8.524;2023-12-20T15:45:29;6.00;97.00
10030;DHT22;5055;52.054;8.524;2023-12-20T15:47:57;6.00;97.00
10030;DHT22;5055;52.054;8.524;2023-12-20T15:50:25;6.00;97.00
10030;DHT22;5055;52.054;8.524;2023-12-20T15:52:55;6.00;97.00
10030;DHT22;5055;52.054;8.524;2023-12-20T15:55:24;6.00;97.00
10030;DHT22;5055;52.054;8.524;2023-12-20T15:57:52;6.00;97.00
10030;DHT22;5055;52.054;8.524;2023-12-20T16:00:21;6.10;97.00
10030;DHT22;5055;52.054;8.524;2023-12-20T16:02:50;6.10;97.00
10030;DHT22;5055;52.054;8.524;2023-12-20T16:05:19;6.10;97.00
10030;DHT22;5055;52.054;8.524;2023-12-20T16:07:48;6.10;97.00
10030;DHT22;5055;52.054;8.524;2023-12-20T16:10:18;6.10;97.00
10030;DHT22;5055;52.054;8.524;2023-12-20T16:12:47;6.10;97.00
10030;DHT22;5055;52.054;8.524;2023-12-20T16:15:16;6.10;97.00